Terminal Aerodrome Forecast
Issued by NWS Binghamton, NY

Home | Current Version | Previous Version | Text Only | Print | Product List | Glossary On
Versions: 1 2 3 4 5 6 7 8 9 10 11 12 13 14 15 16 17 18 19
719
FTUS41 KBGM 102348 RRA
TAFSYR
TAF
KSYR 102348Z 1100/1124 00000KT P6SM -SN BKN035 OVC050
      TEMPO 1100/1104 1 1/2SM -SN OVC025
     FM111500 18007KT P6SM OVC025
     FM111900 15007KT 6SM -SN OVC025
      TEMPO 1120/1124 3SM -SN=

USA.gov is the U.S. government's official web portal to all federal, state and local government web resources and services.